Time;durP1;ratioP1;P1;durP2;ratioP2;P2;SDS_P1;SDS_P2;PMS_P1;PMS_P2;Temp;Humidity;BMP_temperature;BMP_pressure;BME280_temperature;BME280_humidity;BME280_pressure;Samples;Min_cycle;Max_cycle;Signal;HPM_P1;HPM_P2
2023/07/12 00:01:29;;;;;;;11.50;4.43;;;14.20;99.90;;;;;;4401770;28;657670;-66
2023/07/12 00:04:18;;;;;;;8.17;4.60;;;14.20;99.90;;;;;;4388323;28;658805;-66
2023/07/12 00:07:05;;;;;;;10.93;4.03;;;14.20;99.90;;;;;;4398812;28;657446;-66
2023/07/12 00:09:52;;;;;;;6.33;4.10;;;14.20;99.90;;;;;;4408784;28;659454;-66
2023/07/12 00:12:40;;;;;;;12.97;4.10;;;14.20;99.90;;;;;;4402302;28;657323;-66
2023/07/12 00:15:29;;;;;;;9.60;4.57;;;14.20;99.90;;;;;;4411476;28;658669;-66
2023/07/12 00:18:17;;;;;;;9.77;4.40;;;14.20;99.90;;;;;;4384546;28;657623;-66
2023/07/12 00:21:06;;;;;;;7.38;3.90;;;14.20;99.90;;;;;;4408076;28;657648;-66
2023/07/12 00:23:53;;;;;;;7.40;4.57;;;14.20;99.90;;;;;;4384244;28;658595;-66
2023/07/12 00:26:40;;;;;;;7.50;4.17;;;14.20;99.90;;;;;;4391145;28;657544;-66
2023/07/12 00:29:27;;;;;;;7.10;4.73;;;14.20;99.90;;;;;;4407794;28;657724;-66
2023/07/12 00:32:15;;;;;;;6.73;4.47;;;14.10;99.90;;;;;;4406168;28;657452;-66
2023/07/12 00:35:02;;;;;;;5.60;4.17;;;14.10;99.90;;;;;;4413438;28;657963;-66
2023/07/12 00:37:52;;;;;;;7.70;4.40;;;14.10;99.90;;;;;;4396754;28;657010;-66
2023/07/12 00:40:53;;;;;;;6.77;3.97;;;14.10;99.90;;;;;;4417215;28;657480;-66
2023/07/12 00:43:41;;;;;;;7.73;4.40;;;14.10;99.90;;;;;;4368440;28;658398;-66
2023/07/12 00:46:30;;;;;;;8.60;4.53;;;14.10;99.90;;;;;;4407652;28;658461;-66
2023/07/12 00:49:18;;;;;;;8.83;4.50;;;14.10;99.90;;;;;;4385462;28;658329;-66
2023/07/12 00:52:06;;;;;;;9.50;4.40;;;14.10;99.90;;;;;;4397749;28;657868;-66
2023/07/12 00:54:55;;;;;;;6.90;4.37;;;14.10;99.90;;;;;;4409692;28;659349;-66
2023/07/12 00:57:43;;;;;;;6.50;4.47;;;14.10;99.90;;;;;;4380359;28;657941;-66
2023/07/12 01:00:30;;;;;;;8.37;4.27;;;14.10;99.90;;;;;;4398910;28;657578;-66
2023/07/12 01:03:18;;;;;;;7.13;4.33;;;14.10;99.90;;;;;;4407785;28;658563;-66
2023/07/12 01:06:08;;;;;;;9.33;4.60;;;14.10;99.90;;;;;;4397913;28;658134;-66
2023/07/12 01:08:55;;;;;;;6.07;4.27;;;14.10;99.90;;;;;;4382486;28;657968;-67
2023/07/12 01:11:45;;;;;;;7.67;4.30;;;14.10;99.90;;;;;;4409722;28;658624;-66
2023/07/12 01:14:32;;;;;;;6.87;4.20;;;14.10;99.90;;;;;;4383873;28;658547;-66
2023/07/12 01:17:19;;;;;;;7.43;4.40;;;14.10;99.90;;;;;;4408327;28;657262;-66
2023/07/12 01:20:07;;;;;;;6.15;3.75;;;14.10;99.90;;;;;;4389324;28;657773;-66
2023/07/12 01:22:56;;;;;;;6.90;4.33;;;14.10;99.90;;;;;;4408102;28;657783;-66
2023/07/12 01:25:45;;;;;;;11.00;4.20;;;14.10;99.90;;;;;;4375696;28;658275;-66
2023/07/12 01:28:32;;;;;;;5.83;4.00;;;14.10;99.90;;;;;;4380181;28;659605;-66
2023/07/12 01:31:19;;;;;;;8.03;4.13;;;14.10;99.90;;;;;;4409085;28;657013;-66
2023/07/12 01:34:06;;;;;;;7.17;3.83;;;14.10;99.90;;;;;;4388744;28;658692;-66
2023/07/12 01:36:53;;;;;;;8.47;3.80;;;14.00;99.90;;;;;;4406643;28;657874;-66
2023/07/12 01:39:42;;;;;;;6.77;4.07;;;14.00;99.90;;;;;;4386653;28;657610;-66
2023/07/12 01:42:29;;;;;;;6.67;4.13;;;13.90;99.90;;;;;;4395232;28;657715;-66
2023/07/12 01:45:17;;;;;;;7.40;3.70;;;14.00;99.90;;;;;;4389752;28;657399;-66
2023/07/12 01:48:04;;;;;;;6.17;4.00;;;13.90;99.90;;;;;;4407648;28;657332;-66
2023/07/12 01:50:51;;;;;;;6.97;3.80;;;14.00;99.90;;;;;;4384732;28;657872;-66
2023/07/12 01:53:39;;;;;;;5.63;3.83;;;13.90;99.90;;;;;;4407527;28;657685;-66
2023/07/12 01:56:27;;;;;;;5.93;3.90;;;13.90;99.90;;;;;;4388990;28;657151;-66
2023/07/12 01:59:14;;;;;;;6.63;3.70;;;13.90;99.90;;;;;;4399912;28;658228;-66
2023/07/12 02:02:01;;;;;;;5.33;3.87;;;13.80;99.90;;;;;;4388047;28;657307;-66
2023/07/12 02:04:49;;;;;;;9.27;4.33;;;13.80;99.90;;;;;;4406148;28;657587;-66
2023/07/12 02:07:36;;;;;;;6.80;3.93;;;13.80;99.90;;;;;;4385854;28;657719;-66
2023/07/12 02:10:24;;;;;;;5.87;3.90;;;13.80;99.90;;;;;;4406938;28;658151;-66
2023/07/12 02:13:12;;;;;;;6.00;3.93;;;13.80;99.90;;;;;;4390652;28;658293;-66
2023/07/12 02:16:00;;;;;;;7.03;4.17;;;13.80;99.90;;;;;;4402127;28;657582;-66
2023/07/12 02:18:47;;;;;;;7.77;4.10;;;13.80;99.90;;;;;;4410189;28;658649;-67
2023/07/12 02:21:34;;;;;;;7.00;3.50;;;13.80;99.90;;;;;;4407986;28;657953;-66
2023/07/12 02:24:22;;;;;;;7.13;4.13;;;13.80;99.90;;;;;;4389627;28;658582;-66
2023/07/12 02:27:09;;;;;;;6.70;3.87;;;13.80;99.90;;;;;;4408182;28;657223;-66
2023/07/12 02:29:57;;;;;;;5.47;3.70;;;13.80;99.90;;;;;;4389017;28;657926;-66
2023/07/12 02:32:45;;;;;;;6.67;4.10;;;13.90;99.90;;;;;;4396405;28;657359;-66
2023/07/12 02:35:32;;;;;;;4.43;3.87;;;13.80;99.90;;;;;;4409458;28;657601;-67
2023/07/12 02:38:20;;;;;;;6.23;4.00;;;13.90;99.90;;;;;;4398581;28;658374;-67
2023/07/12 02:41:07;;;;;;;6.57;3.70;;;13.90;99.90;;;;;;4418985;28;658520;-66
2023/07/12 02:43:55;;;;;;;8.83;3.90;;;13.90;99.90;;;;;;4403927;28;657826;-67
2023/07/12 02:46:44;;;;;;;6.10;4.40;;;14.00;99.90;;;;;;4412178;28;659044;-66
2023/07/12 02:49:31;;;;;;;5.73;3.90;;;14.00;99.90;;;;;;4385583;28;657536;-66
2023/07/12 02:52:18;;;;;;;6.27;4.10;;;14.00;99.90;;;;;;4410199;28;657799;-67
2023/07/12 02:55:06;;;;;;;5.27;3.80;;;14.10;99.90;;;;;;4390074;28;657658;-67
2023/07/12 02:57:53;;;;;;;8.77;3.77;;;14.10;99.90;;;;;;4411371;28;658111;-66
2023/07/12 03:00:41;;;;;;;7.17;3.83;;;14.10;99.90;;;;;;4388847;28;658169;-66
2023/07/12 03:03:29;;;;;;;6.43;3.63;;;14.10;99.90;;;;;;4413881;28;658152;-66
2023/07/12 03:06:17;;;;;;;6.50;4.07;;;14.20;99.90;;;;;;4384149;28;658853;-66
2023/07/12 03:09:04;;;;;;;7.60;3.90;;;14.30;99.90;;;;;;4412420;28;657887;-66
2023/07/12 03:11:52;;;;;;;7.43;3.73;;;14.40;99.90;;;;;;4389632;28;658952;-66
2023/07/12 03:14:39;;;;;;;10.03;3.97;;;14.50;99.90;;;;;;4408679;28;657859;-66
2023/07/12 03:17:26;;;;;;;8.30;4.00;;;14.60;99.90;;;;;;4388962;28;659750;-67
2023/07/12 03:20:15;;;;;;;10.97;3.90;;;14.70;99.90;;;;;;4411511;28;658184;-67
2023/07/12 03:23:02;;;;;;;5.17;3.67;;;14.90;99.90;;;;;;4384570;28;660404;-67
2023/07/12 03:25:49;;;;;;;6.13;3.53;;;15.00;99.90;;;;;;4405471;28;657362;-67
2023/07/12 03:28:36;;;;;;;7.93;3.37;;;15.10;99.90;;;;;;4387838;28;657551;-66
2023/07/12 03:31:24;;;;;;;7.00;3.67;;;15.20;99.90;;;;;;4410494;28;657804;-66
2023/07/12 03:34:11;;;;;;;5.43;3.40;;;15.30;99.90;;;;;;4391389;28;657430;-66
2023/07/12 03:37:00;;;;;;;8.23;3.90;;;15.40;99.90;;;;;;4409148;28;658485;-67
2023/07/12 03:39:47;;;;;;;7.23;3.87;;;15.60;99.90;;;;;;4380245;28;658346;-67
2023/07/12 03:42:34;;;;;;;7.23;4.10;;;15.60;99.90;;;;;;4406556;28;658218;-66
2023/07/12 03:45:23;;;;;;;7.97;3.93;;;15.70;99.90;;;;;;4390129;28;659177;-67
2023/07/12 03:48:10;;;;;;;7.17;4.20;;;15.80;99.90;;;;;;4396675;28;658354;-67
2023/07/12 03:50:57;;;;;;;10.70;3.60;;;15.90;99.90;;;;;;4412773;28;658060;-67
2023/07/12 03:53:47;;;;;;;8.07;3.97;;;16.00;99.90;;;;;;4406149;28;658682;-67
2023/07/12 03:56:34;;;;;;;5.13;3.87;;;16.10;99.90;;;;;;4400863;28;657734;-67
2023/07/12 03:59:21;;;;;;;6.82;3.85;;;16.20;99.90;;;;;;4386681;28;658005;-67
2023/07/12 04:02:08;;;;;;;7.43;4.20;;;16.30;99.90;;;;;;4408513;28;658196;-67
2023/07/12 04:04:55;;;;;;;5.23;3.40;;;16.40;99.90;;;;;;4389951;28;657548;-67
2023/07/12 04:07:43;;;;;;;10.07;3.93;;;16.60;99.90;;;;;;4409467;28;659204;-67
2023/07/12 04:10:32;;;;;;;6.90;3.97;;;16.60;99.90;;;;;;4387088;28;658565;-67
2023/07/12 04:13:19;;;;;;;6.77;3.80;;;16.80;99.90;;;;;;4401501;28;657873;-67
2023/07/12 04:16:06;;;;;;;6.97;3.93;;;16.90;99.90;;;;;;4389356;28;657480;-66
2023/07/12 04:18:53;;;;;;;6.97;4.00;;;17.10;99.90;;;;;;4408716;28;658517;-67
2023/07/12 04:21:41;;;;;;;8.37;4.07;;;17.30;99.90;;;;;;4388321;28;657643;-67
2023/07/12 04:24:28;;;;;;;4.73;3.63;;;17.40;99.90;;;;;;4412029;28;658487;-67
2023/07/12 04:27:18;;;;;;;5.67;3.43;;;17.60;99.90;;;;;;4384962;28;657762;-67
2023/07/12 04:30:07;;;;;;;6.07;3.63;;;17.80;99.90;;;;;;4389644;28;657831;-67
2023/07/12 04:32:54;;;;;;;8.13;3.80;;;17.90;99.90;;;;;;4407946;28;657383;-67
2023/07/12 04:35:41;;;;;;;6.43;3.87;;;18.20;99.90;;;;;;4390509;28;657388;-67
2023/07/12 04:38:29;;;;;;;8.50;3.90;;;18.40;99.90;;;;;;4400151;28;658380;-67
2023/07/12 04:41:16;;;;;;;11.83;3.60;;;18.60;99.90;;;;;;4396934;28;657403;-67
2023/07/12 04:44:04;;;;;;;5.83;3.40;;;18.70;99.90;;;;;;4401083;28;658657;-67
2023/07/12 04:46:52;;;;;;;6.77;3.80;;;18.90;99.90;;;;;;4388054;28;657981;-67
2023/07/12 04:49:39;;;;;;;6.30;3.97;;;19.10;99.90;;;;;;4401975;28;657328;-67
2023/07/12 04:52:26;;;;;;;6.80;3.57;;;19.30;99.90;;;;;;4389788;28;658659;-67
2023/07/12 04:55:21;;;;;;;8.40;3.70;;;19.40;99.90;;;;;;4408912;28;658219;-67
2023/07/12 04:58:08;;;;;;;5.70;3.50;;;19.60;99.90;;;;;;4386466;28;657245;-67
2023/07/12 05:00:58;;;;;;;10.63;3.73;;;19.70;99.90;;;;;;4382163;28;657642;-67
2023/07/12 05:03:46;;;;;;;7.57;3.47;;;19.90;99.90;;;;;;4391131;28;660408;-67
2023/07/12 05:06:33;;;;;;;7.73;3.30;;;20.10;99.90;;;;;;4408083;28;657161;-67
2023/07/12 05:09:21;;;;;;;7.93;3.53;;;20.40;99.90;;;;;;4388630;28;658013;-67
2023/07/12 05:12:08;;;;;;;5.63;3.80;;;20.70;99.90;;;;;;4410442;28;658992;-67
2023/07/12 05:14:56;;;;;;;10.73;3.57;;;20.80;99.90;;;;;;4389858;28;657358;-68
2023/07/12 05:17:44;;;;;;;6.53;3.67;;;21.00;99.90;;;;;;4399158;28;659015;-68
2023/07/12 05:20:32;;;;;;;9.13;3.63;;;21.10;99.90;;;;;;4386595;28;657869;-68
2023/07/12 05:23:19;;;;;;;5.00;3.23;;;21.20;99.90;;;;;;4409043;28;657632;-68
2023/07/12 05:26:06;;;;;;;5.23;3.77;;;21.30;99.90;;;;;;4389483;28;658054;-67
2023/07/12 05:28:53;;;;;;;6.13;3.60;;;21.50;99.90;;;;;;4408741;28;657827;-67
2023/07/12 05:31:41;;;;;;;8.50;3.47;;;21.60;99.90;;;;;;4383227;28;657937;-68
2023/07/12 05:34:29;;;;;;;7.30;4.30;;;21.60;99.90;;;;;;4411513;28;658159;-68
2023/07/12 05:37:17;;;;;;;10.73;3.90;;;21.60;99.90;;;;;;4385407;28;658110;-68
2023/07/12 05:40:05;;;;;;;6.87;3.80;;;21.70;99.90;;;;;;4405660;28;658036;-68
2023/07/12 05:42:52;;;;;;;8.80;3.80;;;21.80;99.90;;;;;;4385259;28;658142;-68
2023/07/12 05:45:40;;;;;;;7.60;3.60;;;21.90;99.90;;;;;;4401405;28;657810;-68
2023/07/12 05:48:27;;;;;;;10.53;3.97;;;21.90;99.90;;;;;;4382729;28;657777;-69
2023/07/12 05:51:17;;;;;;;4.37;3.40;;;21.90;99.90;;;;;;4396503;28;659466;-69
2023/07/12 05:54:04;;;;;;;10.10;3.90;;;21.90;99.90;;;;;;4407960;28;658945;-69
2023/07/12 05:56:51;;;;;;;5.47;3.70;;;21.90;99.90;;;;;;4382017;28;658548;-68
2023/07/12 05:59:38;;;;;;;6.97;3.73;;;22.00;99.90;;;;;;4404588;28;657953;-68
2023/07/12 06:02:25;;;;;;;7.40;3.73;;;22.00;99.90;;;;;;4387884;28;657873;-68
2023/07/12 06:05:12;;;;;;;8.00;3.93;;;22.00;99.90;;;;;;4412127;28;658356;-68
2023/07/12 06:08:02;;;;;;;8.13;3.90;;;22.10;99.90;;;;;;4404737;28;658226;-69
2023/07/12 06:10:49;;;;;;;7.73;4.27;;;22.10;99.90;;;;;;4409039;28;657619;-68
2023/07/12 06:13:36;;;;;;;6.33;3.60;;;22.10;99.90;;;;;;4384318;28;657774;-68
2023/07/12 06:16:23;;;;;;;7.70;4.17;;;22.30;99.90;;;;;;4399927;28;658595;-68
2023/07/12 06:19:10;;;;;;;8.30;4.17;;;22.60;99.90;;;;;;4383285;28;658066;-68
2023/07/12 06:21:57;;;;;;;8.07;4.07;;;22.80;99.90;;;;;;4410480;28;658745;-68
2023/07/12 06:24:47;;;;;;;7.07;4.23;;;23.10;99.90;;;;;;4404524;28;658226;-68
2023/07/12 06:27:34;;;;;;;7.63;3.87;;;23.30;99.90;;;;;;4409398;28;657194;-68
2023/07/12 06:30:22;;;;;;;5.30;4.27;;;23.70;99.90;;;;;;4388232;28;657970;-68
2023/07/12 06:33:10;;;;;;;11.43;4.50;;;23.80;99.90;;;;;;4400062;28;657591;-68
2023/07/12 06:35:58;;;;;;;9.87;4.70;;;23.80;99.90;;;;;;4381862;28;659462;-68
2023/07/12 06:38:46;;;;;;;8.10;4.17;;;23.80;99.90;;;;;;4395913;28;657708;-68
2023/07/12 06:41:34;;;;;;;10.90;4.10;;;24.00;99.90;;;;;;4410070;28;659586;-68
2023/07/12 06:44:22;;;;;;;10.57;5.20;;;24.10;99.90;;;;;;4379595;28;660207;-68
2023/07/12 06:47:09;;;;;;;8.13;4.22;;;24.20;99.90;;;;;;4403124;28;658524;-68
2023/07/12 06:49:57;;;;;;;13.68;4.68;;;24.10;99.90;;;;;;4386024;28;658277;-68
2023/07/12 06:52:44;;;;;;;9.00;4.40;;;24.20;99.90;;;;;;4405750;28;658284;-68
2023/07/12 06:55:31;;;;;;;8.47;4.00;;;24.30;99.90;;;;;;4384534;28;657934;-68
2023/07/12 06:58:20;;;;;;;10.23;4.65;;;24.30;99.90;;;;;;4411876;28;658043;-67
2023/07/12 07:01:08;;;;;;;12.55;5.05;;;24.30;99.90;;;;;;4388549;28;658797;-68
2023/07/12 07:03:55;;;;;;;9.52;4.90;;;24.30;99.90;;;;;;4380183;28;659127;-68
2023/07/12 07:06:43;;;;;;;9.05;4.40;;;24.50;99.90;;;;;;4420532;28;657840;-68
2023/07/12 07:09:33;;;;;;;10.10;4.72;;;24.70;99.90;;;;;;4393214;28;657935;-68
2023/07/12 07:12:20;;;;;;;15.38;5.10;;;24.90;99.90;;;;;;4390247;28;658221;-69
2023/07/12 07:15:09;;;;;;;7.28;5.22;;;25.00;99.90;;;;;;4410798;28;659848;-69
2023/07/12 07:17:57;;;;;;;8.55;5.10;;;25.30;99.90;;;;;;4388478;28;657920;-69
2023/07/12 07:20:45;;;;;;;14.52;5.32;;;25.40;99.90;;;;;;4409316;28;657929;-69
2023/07/12 07:23:33;;;;;;;8.63;5.07;;;25.60;99.90;;;;;;4403166;28;659522;-69
2023/07/12 07:26:20;;;;;;;9.75;5.43;;;25.80;99.90;;;;;;4386140;28;658169;-69
2023/07/12 07:29:07;;;;;;;14.82;5.45;;;25.80;99.90;;;;;;4410215;28;659023;-70
2023/07/12 07:31:57;;;;;;;9.35;5.28;;;25.80;99.90;;;;;;4409572;28;658904;-68
2023/07/12 07:34:44;;;;;;;11.65;5.90;;;26.00;99.90;;;;;;4410488;28;657045;-69
2023/07/12 07:37:31;;;;;;;8.40;5.70;;;26.00;99.90;;;;;;4389879;28;658984;-69
2023/07/12 07:40:18;;;;;;;11.68;5.72;;;26.40;99.90;;;;;;4403851;28;658764;-69
2023/07/12 07:43:06;;;;;;;15.13;5.97;;;26.60;99.90;;;;;;4388024;28;658567;-69
2023/07/12 07:45:53;;;;;;;11.15;5.68;;;26.50;99.90;;;;;;4411880;28;658821;-70
2023/07/12 07:48:42;;;;;;;11.07;5.60;;;26.70;99.90;;;;;;4395138;28;658428;-69
2023/07/12 07:51:29;;;;;;;9.70;5.32;;;26.90;99.90;;;;;;4408383;28;658490;-69
2023/07/12 07:54:16;;;;;;;13.60;5.40;;;27.00;99.90;;;;;;4390044;28;657530;-70
2023/07/12 07:57:03;;;;;;;9.30;5.93;;;26.90;98.10;;;;;;4406035;28;659830;-69
2023/07/12 07:59:51;;;;;;;9.55;6.00;;;27.00;99.90;;;;;;4388683;28;657555;-69
2023/07/12 08:02:38;;;;;;;9.77;5.80;;;27.20;99.30;;;;;;4412126;28;658263;-69
2023/07/12 08:05:27;;;;;;;9.88;5.75;;;27.40;99.70;;;;;;4390869;28;657553;-68
2023/07/12 08:08:14;;;;;;;9.50;5.88;;;27.10;99.90;;;;;;4411477;28;657461;-70
2023/07/12 08:11:01;;;;;;;9.25;5.93;;;27.40;99.90;;;;;;4390575;28;658122;-69
2023/07/12 08:13:48;;;;;;;11.30;5.97;;;27.50;97.40;;;;;;4412222;28;657896;-70
2023/07/12 08:16:37;;;;;;;8.90;5.70;;;27.30;99.90;;;;;;4383384;28;659106;-69
2023/07/12 08:19:24;;;;;;;10.90;6.13;;;27.30;99.90;;;;;;4408223;28;657627;-69
2023/07/12 08:22:13;;;;;;;10.77;6.03;;;27.30;99.90;;;;;;4385464;28;659064;-68
2023/07/12 08:25:00;;;;;;;10.20;5.85;;;27.50;99.90;;;;;;4393392;28;659176;-68
2023/07/12 08:27:48;;;;;;;9.43;5.90;;;27.80;99.90;;;;;;4404691;28;659531;-68
2023/07/12 08:30:36;;;;;;;13.73;6.00;;;28.00;95.20;;;;;;4392723;28;657942;-68
2023/07/12 08:33:23;;;;;;;11.32;5.65;;;28.20;99.90;;;;;;4405260;28;659035;-68
2023/07/12 08:36:11;;;;;;;10.45;5.90;;;28.70;93.00;;;;;;4389519;28;659079;-68
2023/07/12 08:38:59;;;;;;;12.90;6.07;;;29.20;87.80;;;;;;4411117;28;659595;-68
2023/07/12 08:41:46;;;;;;;9.30;5.70;;;28.90;89.40;;;;;;4385156;28;658870;-68
2023/07/12 08:44:34;;;;;;;11.80;6.13;;;28.90;92.10;;;;;;4407397;28;658050;-68
2023/07/12 08:47:25;;;;;;;11.85;6.40;;;29.00;93.40;;;;;;4390565;28;658772;-68
2023/07/12 08:50:13;;;;;;;16.48;6.28;;;28.20;92.20;;;;;;4382504;28;659870;-68
2023/07/12 08:53:00;;;;;;;12.27;6.28;;;27.90;91.50;;;;;;4388636;28;658656;-68
2023/07/12 08:55:49;;;;;;;13.25;6.75;;;27.40;94.50;;;;;;4401800;28;659502;-68
2023/07/12 08:58:38;;;;;;;11.20;6.57;;;27.30;98.40;;;;;;4375258;28;658701;-68
2023/07/12 09:01:39;;;;;;;9.93;5.88;;;27.10;96.60;;;;;;4389135;28;658632;-68
2023/07/12 09:04:27;;;;;;;14.35;6.30;;;27.00;97.40;;;;;;4358740;28;658604;-68
2023/07/12 09:07:21;;;;;;;11.30;6.82;;;26.80;98.40;;;;;;4406653;28;658473;-68
2023/07/12 09:10:08;;;;;;;9.95;6.03;;;26.70;99.90;;;;;;4376026;28;659166;-68
2023/07/12 09:12:57;;;;;;;13.80;6.65;;;26.60;99.90;;;;;;4389114;28;657507;-67
2023/07/12 09:15:45;;;;;;;9.25;6.50;;;26.60;99.90;;;;;;4411091;28;658957;-68
2023/07/12 09:18:34;;;;;;;11.98;6.78;;;26.30;99.90;;;;;;4382455;28;658451;-68
2023/07/12 09:21:22;;;;;;;13.35;6.53;;;26.50;99.90;;;;;;4388959;28;658602;-68
2023/07/12 09:24:13;;;;;;;11.35;6.10;;;26.60;99.90;;;;;;4408573;28;658411;-68
2023/07/12 09:27:03;;;;;;;10.55;6.35;;;26.80;99.90;;;;;;4371040;28;658994;-68
2023/07/12 09:30:00;;;;;;;16.58;6.88;;;26.60;99.90;;;;;;4389355;28;658316;-68
2023/07/12 09:32:48;;;;;;;8.80;6.13;;;26.40;99.90;;;;;;4384619;28;660297;-69
2023/07/12 09:35:39;;;;;;;10.40;5.60;;;26.50;99.90;;;;;;4391707;28;658218;-68
2023/07/12 09:38:26;;;;;;;10.27;6.70;;;26.20;99.90;;;;;;4387069;28;658840;-69
2023/07/12 09:41:18;;;;;;;10.55;6.40;;;25.50;99.90;;;;;;4405237;28;659222;-68
2023/07/12 09:44:05;;;;;;;9.25;6.35;;;25.40;99.90;;;;;;4364517;28;659298;-69
2023/07/12 09:46:56;;;;;;;8.93;6.35;;;25.20;99.90;;;;;;4410257;28;658994;-71
2023/07/12 09:49:47;;;;;;;12.75;6.47;;;25.30;99.90;;;;;;4377490;28;658574;-71
2023/07/12 09:52:37;;;;;;;13.30;6.55;;;25.40;99.90;;;;;;4383464;28;658388;-71
2023/07/12 09:55:26;;;;;;;12.25;6.82;;;25.60;99.90;;;;;;4382912;28;659277;-70
2023/07/12 09:58:15;;;;;;;9.55;7.00;;;25.80;99.90;;;;;;4381929;28;659687;-71
2023/07/12 10:01:06;;;;;;;11.80;6.57;;;26.10;99.90;;;;;;4382257;28;658499;-71
2023/07/12 10:03:56;;;;;;;15.00;6.68;;;26.50;99.90;;;;;;4375057;28;659482;-71
2023/07/12 10:06:44;;;;;;;10.85;6.93;;;26.80;99.90;;;;;;4383303;28;658940;-70
2023/07/12 10:09:33;;;;;;;13.77;6.43;;;27.00;99.90;;;;;;4387692;28;659841;-71
2023/07/12 10:12:24;;;;;;;12.48;7.05;;;27.00;99.90;;;;;;4390939;28;658729;-70
2023/07/12 10:15:13;;;;;;;13.48;6.82;;;26.70;99.90;;;;;;4385952;28;658262;-71
2023/07/12 10:18:00;;;;;;;11.02;7.32;;;26.90;99.90;;;;;;4389058;28;658851;-70
2023/07/12 10:20:49;;;;;;;19.52;6.90;;;27.40;99.90;;;;;;4406030;28;658233;-71
2023/07/12 10:23:40;;;;;;;14.77;6.78;;;27.70;99.90;;;;;;4385104;28;658783;-71
2023/07/12 10:26:27;;;;;;;14.63;6.30;;;27.90;99.90;;;;;;4382679;28;659592;-71
2023/07/12 10:29:16;;;;;;;10.65;6.18;;;28.20;99.90;;;;;;4406261;28;658834;-72
2023/07/12 10:32:04;;;;;;;11.50;5.90;;;28.40;99.90;;;;;;4378404;28;659440;-74
2023/07/12 10:34:57;;;;;;;10.15;6.38;;;27.80;99.90;;;;;;4386924;28;659105;-74
2023/07/12 10:37:48;;;;;;;9.37;6.23;;;27.90;99.90;;;;;;4384300;28;658707;-72
2023/07/12 10:40:37;;;;;;;7.80;5.80;;;27.80;98.40;;;;;;4388067;28;657863;-70
2023/07/12 10:43:25;;;;;;;11.60;5.25;;;27.90;99.70;;;;;;4406054;28;657528;-70
2023/07/12 10:46:16;;;;;;;8.00;5.63;;;28.30;97.50;;;;;;4382740;28;660073;-72
2023/07/12 10:49:04;;;;;;;9.70;5.80;;;28.30;96.10;;;;;;4385895;28;658730;-71
2023/07/12 10:52:16;;;;;;;8.93;5.35;;;27.70;96.20;;;;;;4389808;28;657586;-73
2023/07/12 10:55:23;;;;;;;7.25;5.22;;;28.50;95.80;;;;;;4384207;28;657929;-72
2023/07/12 10:58:25;;;;;;;7.50;5.68;;;29.00;95.10;;;;;;4368727;28;659452;-70
2023/07/12 11:01:40;;;;;;;6.07;4.90;;;28.80;92.40;;;;;;4358488;28;658872;-73
2023/07/12 11:04:38;;;;;;;8.57;5.72;;;28.60;90.30;;;;;;4358571;28;658084;-71
2023/07/12 11:07:36;;;;;;;11.25;5.78;;;29.00;94.80;;;;;;4370309;28;657791;-70
2023/07/12 11:10:27;;;;;;;12.63;5.60;;;28.90;89.30;;;;;;4384665;28;659440;-73
2023/07/12 11:13:15;;;;;;;10.55;6.10;;;28.70;89.30;;;;;;4385149;28;658293;-70
2023/07/12 11:16:05;;;;;;;11.45;5.70;;;28.10;91.50;;;;;;4401320;28;659997;-71
2023/07/12 11:18:54;;;;;;;10.13;6.30;;;28.20;91.50;;;;;;4386898;28;660615;-71
2023/07/12 11:21:46;;;;;;;12.25;5.45;;;27.90;92.40;;;;;;4390425;28;658599;-73
2023/07/12 11:24:37;;;;;;;9.55;5.30;;;27.70;90.40;;;;;;4387864;28;659297;-73
2023/07/12 11:27:33;;;;;;;7.00;4.90;;;27.40;91.80;;;;;;4388037;28;657897;-72
2023/07/12 11:30:23;;;;;;;8.38;5.10;;;27.00;91.40;;;;;;4393927;28;657853;-70
2023/07/12 11:33:25;;;;;;;6.90;4.00;;;27.00;91.20;;;;;;4388733;28;659992;-73
2023/07/12 11:36:18;;;;;;;7.18;4.30;;;27.40;90.30;;;;;;4389515;28;658010;-71
2023/07/12 11:39:13;;;;;;;6.25;4.30;;;27.20;89.50;;;;;;4365552;28;658066;-71
2023/07/12 11:42:03;;;;;;;8.75;4.50;;;27.20;90.60;;;;;;4376243;28;657556;-69
2023/07/12 11:45:01;;;;;;;6.70;4.25;;;26.80;91.70;;;;;;4392039;28;657615;-72
2023/07/12 11:47:49;;;;;;;8.18;4.68;;;26.30;91.50;;;;;;4391300;28;658976;-74
2023/07/12 11:50:37;;;;;;;7.72;4.78;;;26.30;94.00;;;;;;4391022;28;659103;-74
2023/07/12 11:53:24;;;;;;;10.02;4.72;;;26.20;94.20;;;;;;4413650;28;657620;-74
2023/07/12 11:56:13;;;;;;;9.85;4.90;;;26.20;95.50;;;;;;4385611;28;658679;-73
2023/07/12 11:59:01;;;;;;;8.30;4.63;;;26.30;96.90;;;;;;4390773;28;657884;-70
2023/07/12 12:01:50;;;;;;;9.95;5.05;;;25.90;97.00;;;;;;4415519;28;657455;-71
2023/07/12 12:04:37;;;;;;;7.63;4.50;;;25.60;99.90;;;;;;4383970;28;658972;-70
2023/07/12 12:07:25;;;;;;;13.07;4.70;;;25.70;99.90;;;;;;4410685;28;657650;-71
2023/07/12 12:10:20;;;;;;;6.22;4.53;;;25.90;99.90;;;;;;4383581;28;659850;-74
2023/07/12 12:13:16;;;;;;;10.88;4.95;;;25.90;99.40;;;;;;4362535;28;658620;-71
2023/07/12 12:16:08;;;;;;;14.15;5.10;;;25.90;99.90;;;;;;4378767;28;659219;-73
2023/07/12 12:18:58;;;;;;;9.05;4.90;;;25.70;99.60;;;;;;4373601;28;658565;-70
2023/07/12 12:21:48;;;;;;;8.07;5.05;;;25.60;99.90;;;;;;4388893;28;657977;-69
2023/07/12 12:24:40;;;;;;;14.07;5.45;;;25.80;99.90;;;;;;4390733;28;657965;-69
2023/07/12 12:27:31;;;;;;;10.40;5.10;;;26.10;99.90;;;;;;4388740;28;659083;-70
2023/07/12 12:30:19;;;;;;;7.90;5.30;;;25.90;99.90;;;;;;4388238;28;659152;-70
2023/07/12 12:33:21;;;;;;;9.25;5.25;;;25.50;99.90;;;;;;4387307;28;657955;-68
2023/07/12 12:36:19;;;;;;;11.75;5.30;;;25.10;99.90;;;;;;4387826;28;657833;-71
2023/07/12 12:39:19;;;;;;;8.10;5.47;;;24.90;99.90;;;;;;4387506;28;658564;-68
2023/07/12 12:42:18;;;;;;;18.13;6.72;;;24.70;99.90;;;;;;4367438;28;658887;-70
2023/07/12 12:45:06;;;;;;;7.75;5.68;;;24.50;99.90;;;;;;4365383;28;658718;-68
2023/07/12 12:47:53;;;;;;;12.32;6.38;;;24.60;99.90;;;;;;4400599;28;658097;-69
2023/07/12 12:50:41;;;;;;;9.50;5.88;;;24.60;99.90;;;;;;4385003;28;659055;-69
2023/07/12 12:53:29;;;;;;;9.75;6.10;;;24.60;99.90;;;;;;4407683;28;659334;-69
2023/07/12 12:56:16;;;;;;;11.27;6.30;;;24.50;99.90;;;;;;4385836;28;658297;-69
2023/07/12 12:59:04;;;;;;;12.23;5.97;;;24.60;99.90;;;;;;4406196;28;659084;-69
2023/07/12 13:01:51;;;;;;;14.90;6.45;;;24.40;99.90;;;;;;4387939;28;658547;-68
2023/07/12 13:04:38;;;;;;;11.77;6.32;;;24.60;99.90;;;;;;4397678;28;660095;-68
2023/07/12 13:07:26;;;;;;;16.23;6.25;;;24.80;99.90;;;;;;4388278;28;658762;-68
2023/07/12 13:10:16;;;;;;;11.35;6.20;;;24.90;99.90;;;;;;4407208;28;658854;-68
2023/07/12 13:13:04;;;;;;;9.27;6.32;;;24.80;99.90;;;;;;4378811;28;660250;-69
2023/07/12 13:15:51;;;;;;;13.40;5.95;;;25.30;99.90;;;;;;4386617;28;657316;-70
2023/07/12 13:18:38;;;;;;;10.30;6.28;;;25.70;99.90;;;;;;4406990;28;659566;-69
2023/07/12 13:21:26;;;;;;;14.77;6.72;;;26.10;99.90;;;;;;4382368;28;658676;-68
2023/07/12 13:24:13;;;;;;;9.75;6.03;;;26.10;99.90;;;;;;4394319;28;660877;-68
2023/07/12 13:27:02;;;;;;;10.54;6.38;;;26.10;99.90;;;;;;4391427;28;657743;-67
2023/07/12 13:29:50;;;;;;;12.15;6.50;;;26.30;99.90;;;;;;4406967;28;658621;-70
2023/07/12 13:32:37;;;;;;;7.97;5.72;;;26.30;99.90;;;;;;4385482;28;660422;-68
2023/07/12 13:35:24;;;;;;;10.15;6.35;;;26.90;99.90;;;;;;4408663;28;657269;-70
2023/07/12 13:38:12;;;;;;;12.20;6.70;;;26.90;99.90;;;;;;4380472;28;658823;-69
2023/07/12 13:40:59;;;;;;;9.85;6.05;;;26.80;99.90;;;;;;4407926;28;658352;-67
2023/07/12 13:43:50;;;;;;;11.90;5.75;;;26.80;99.90;;;;;;4386207;28;657285;-70
2023/07/12 13:46:38;;;;;;;10.80;5.72;;;26.90;99.90;;;;;;4380621;28;659277;-68
2023/07/12 13:49:25;;;;;;;11.90;5.53;;;27.10;99.90;;;;;;4396172;28;658657;-67
2023/07/12 13:52:13;;;;;;;8.38;5.65;;;27.30;99.90;;;;;;4409361;28;659556;-68
2023/07/12 13:55:00;;;;;;;14.85;5.97;;;27.50;99.90;;;;;;4394069;28;657624;-68
2023/07/12 13:57:48;;;;;;;12.27;5.53;;;27.80;99.90;;;;;;4398654;28;659955;-68
2023/07/12 14:00:37;;;;;;;7.12;5.08;;;28.00;98.30;;;;;;4387900;28;658837;-68
2023/07/12 14:03:24;;;;;;;7.55;5.05;;;27.20;99.10;;;;;;4405611;28;658480;-72
2023/07/12 14:06:11;;;;;;;9.30;4.97;;;26.60;98.30;;;;;;4387775;28;657558;-71
2023/07/12 14:08:58;;;;;;;9.77;4.97;;;26.60;99.90;;;;;;4407718;28;659346;-71
2023/07/12 14:11:45;;;;;;;10.88;5.25;;;26.90;99.90;;;;;;4390883;28;658011;-69
2023/07/12 14:14:33;;;;;;;10.23;4.50;;;26.70;99.70;;;;;;4402800;28;660231;-69
2023/07/12 14:17:23;;;;;;;9.75;5.53;;;26.70;99.90;;;;;;4387627;28;658466;-67
2023/07/12 14:20:11;;;;;;;8.20;5.05;;;26.70;99.90;;;;;;4397489;28;657946;-68
2023/07/12 14:22:58;;;;;;;7.82;4.70;;;26.80;99.90;;;;;;4410848;28;657656;-69